createdAt,value
2022-10-26T00:01:09.243Z,20.56
2022-10-26T00:03:37.355Z,20.45
2022-10-26T00:06:25.567Z,20.19
2022-10-26T00:08:52.800Z,20.85
2022-10-26T00:11:19.673Z,20.79
2022-10-26T00:13:47.749Z,20.53
2022-10-26T00:16:17.520Z,20.49
2022-10-26T00:18:45.065Z,20.55
2022-10-26T00:21:12.331Z,20.17
2022-10-26T00:23:39.254Z,20.05
2022-10-26T00:26:06.712Z,20.29
2022-10-26T00:28:34.125Z,20.07
2022-10-26T00:31:03.274Z,20.26
2022-10-26T00:33:30.550Z,20.45
2022-10-26T00:35:57.310Z,20.46
2022-10-26T00:38:24.008Z,20.20
2022-10-26T00:40:51.095Z,20.17
2022-10-26T00:43:23.518Z,19.91
2022-10-26T00:45:53.494Z,20.18
2022-10-26T00:48:26.168Z,20.29
2022-10-26T00:50:54.250Z,20.37
2022-10-26T00:53:21.255Z,20.32
2022-10-26T00:55:51.188Z,20.35
2022-10-26T00:58:19.174Z,20.48
2022-10-26T01:00:46.223Z,20.37
2022-10-26T01:03:13.262Z,20.42
2022-10-26T01:05:44.030Z,20.58
2022-10-26T01:08:11.222Z,20.12
2022-10-26T01:10:40.224Z,20.25
2022-10-26T01:13:07.236Z,19.62
2022-10-26T01:15:48.321Z,20.06
2022-10-26T01:18:44.150Z,19.52
2022-10-26T01:21:25.910Z,19.90
2022-10-26T01:24:26.895Z,19.78
2022-10-26T01:27:17.903Z,19.94
2022-10-26T01:30:01.723Z,20.06
2022-10-26T01:32:59.584Z,20.16
2022-10-26T01:35:37.904Z,20.13
2022-10-26T01:38:11.801Z,19.96
2022-10-26T01:40:52.451Z,20.25
2022-10-26T01:43:20.991Z,20.29
2022-10-26T01:45:49.076Z,20.27
2022-10-26T01:48:20.412Z,20.44
2022-10-26T01:50:51.051Z,20.36
2022-10-26T01:53:19.665Z,20.37
2022-10-26T01:55:52.821Z,20.32
2022-10-26T01:58:34.638Z,20.40
2022-10-26T02:01:23.193Z,20.44
2022-10-26T02:04:06.676Z,20.39
2022-10-26T02:07:15.528Z,20.33
2022-10-26T02:09:46.597Z,20.04
2022-10-26T02:12:27.144Z,19.52
2022-10-26T02:15:04.107Z,19.34
2022-10-26T02:17:40.718Z,19.44
2022-10-26T02:20:13.392Z,19.21
2022-10-26T02:22:45.569Z,19.12
2022-10-26T02:25:36.097Z,19.00
2022-10-26T02:28:16.336Z,18.90
2022-10-26T02:30:45.769Z,18.89
2022-10-26T02:33:14.663Z,18.85
2022-10-26T02:35:45.587Z,18.78
2022-10-26T02:38:14.288Z,18.55
2022-10-26T02:40:42.320Z,18.70
2022-10-26T02:43:14.130Z,18.74
2022-10-26T02:45:51.329Z,18.54
2022-10-26T02:48:18.722Z,18.48
2022-10-26T02:50:53.922Z,18.60
2022-10-26T02:53:32.235Z,18.58
2022-10-26T02:56:07.395Z,18.56
2022-10-26T02:58:41.121Z,18.40
2022-10-26T03:01:08.535Z,18.30
2022-10-26T03:03:35.473Z,18.34
2022-10-26T03:06:02.260Z,18.37
2022-10-26T03:11:00.935Z,18.01
2022-10-26T03:13:27.680Z,17.97
2022-10-26T03:16:00.181Z,18.36
2022-10-26T03:18:27.077Z,18.17
2022-10-26T03:20:53.838Z,18.23
2022-10-26T03:23:21.047Z,18.06
2022-10-26T03:25:48.903Z,18.11
2022-10-26T03:28:15.612Z,17.95
2022-10-26T03:30:42.366Z,18.11
2022-10-26T03:33:09.423Z,17.72
2022-10-26T03:35:36.176Z,17.88
2022-10-26T03:38:02.909Z,18.22
2022-10-26T03:40:29.565Z,18.42
2022-10-26T03:42:56.481Z,18.51
2022-10-26T03:45:23.250Z,18.48
2022-10-26T03:47:50.375Z,18.34
2022-10-26T03:50:19.969Z,18.62
2022-10-26T03:52:48.038Z,18.53
2022-10-26T03:55:15.737Z,18.89
2022-10-26T03:57:44.075Z,18.65
2022-10-26T04:00:15.318Z,18.88
2022-10-26T04:02:48.929Z,18.75
2022-10-26T04:05:16.821Z,18.48
2022-10-26T04:07:43.888Z,18.49
2022-10-26T04:10:10.916Z,18.30
2022-10-26T04:12:38.529Z,18.26
2022-10-26T04:15:07.328Z,18.35
2022-10-26T04:17:34.452Z,17.80
2022-10-26T04:20:01.280Z,17.82
2022-10-26T04:22:28.346Z,17.95
2022-10-26T04:24:55.101Z,18.02
2022-10-26T04:27:22.311Z,17.74
2022-10-26T04:29:49.094Z,17.63
2022-10-26T04:32:15.909Z,17.49
2022-10-26T04:34:42.696Z,17.33
2022-10-26T04:37:09.435Z,17.15
2022-10-26T04:39:36.308Z,17.43
2022-10-26T04:42:03.072Z,17.00
2022-10-26T04:44:29.748Z,17.11
2022-10-26T04:46:57.063Z,17.37
2022-10-26T04:49:23.792Z,17.34
2022-10-26T04:51:50.736Z,17.10
2022-10-26T04:54:17.646Z,17.44
2022-10-26T04:59:11.230Z,17.71
2022-10-26T05:01:38.127Z,17.13
2022-10-26T05:04:04.902Z,17.01
2022-10-26T05:06:32.588Z,16.82
2022-10-26T05:09:00.404Z,17.03
2022-10-26T05:11:27.046Z,17.07
2022-10-26T05:13:53.933Z,17.23
2022-10-26T05:16:20.688Z,16.93
2022-10-26T05:18:50.561Z,16.86
2022-10-26T05:21:19.733Z,17.24
2022-10-26T05:23:52.480Z,17.12
2022-10-26T05:26:20.341Z,16.81
2022-10-26T05:28:47.171Z,16.35
2022-10-26T05:31:14.236Z,16.25
2022-10-26T05:33:41.099Z,16.63
2022-10-26T05:36:08.273Z,16.71
2022-10-26T05:38:36.081Z,16.75
2022-10-26T05:41:02.882Z,16.57
2022-10-26T05:43:30.404Z,16.71
2022-10-26T05:45:57.000Z,16.90
2022-10-26T05:48:23.939Z,16.63
2022-10-26T05:50:50.772Z,17.04
2022-10-26T05:53:18.990Z,16.80
2022-10-26T05:55:46.266Z,16.89
2022-10-26T05:58:14.810Z,17.03
2022-10-26T06:01:01.904Z,17.33
2022-10-26T06:03:43.629Z,17.54
2022-10-26T06:06:13.353Z,17.58
2022-10-26T06:08:40.344Z,17.51
2022-10-26T06:11:07.893Z,17.37
2022-10-26T06:13:34.943Z,17.34
2022-10-26T06:16:23.244Z,17.35
2022-10-26T06:18:53.088Z,17.38
2022-10-26T06:21:50.479Z,16.96
2022-10-26T06:24:29.144Z,17.52
2022-10-26T06:27:17.143Z,17.26
2022-10-26T06:29:46.386Z,17.70
2022-10-26T06:32:13.876Z,17.66
2022-10-26T06:34:45.175Z,17.69
2022-10-26T06:37:13.107Z,17.80
2022-10-26T06:39:44.859Z,18.22
2022-10-26T06:42:12.002Z,18.55
2022-10-26T06:44:39.567Z,18.42
2022-10-26T06:47:19.788Z,18.07
2022-10-26T06:50:03.443Z,17.83
2022-10-26T06:52:54.009Z,18.52
2022-10-26T06:55:21.928Z,18.10
2022-10-26T06:57:50.081Z,18.21
2022-10-26T07:00:21.043Z,18.82
2022-10-26T07:02:51.100Z,18.76
2022-10-26T07:05:18.092Z,17.96
2022-10-26T07:07:48.531Z,18.46
2022-10-26T07:10:15.967Z,19.06
2022-10-26T07:12:42.729Z,19.06
2022-10-26T07:17:45.912Z,18.58
2022-10-26T07:20:12.957Z,19.23
2022-10-26T07:22:39.904Z,18.94
2022-10-26T07:25:08.070Z,18.69
2022-10-26T07:27:35.259Z,19.29
2022-10-26T07:30:02.473Z,19.12
2022-10-26T07:32:30.375Z,19.12
2022-10-26T07:34:57.067Z,19.29
2022-10-26T07:37:23.960Z,19.35
2022-10-26T07:39:50.663Z,19.56
2022-10-26T07:42:17.504Z,19.79
2022-10-26T07:44:44.232Z,20.34
2022-10-26T07:47:11.270Z,20.77
2022-10-26T07:49:37.955Z,20.60
2022-10-26T07:52:05.007Z,20.60
2022-10-26T07:54:32.653Z,20.94
2022-10-26T07:56:59.824Z,20.59
2022-10-26T07:59:26.632Z,21.25
2022-10-26T08:01:53.658Z,21.45
2022-10-26T08:04:20.546Z,21.74
2022-10-26T08:06:48.741Z,21.96
2022-10-26T08:09:15.645Z,21.98
2022-10-26T08:11:42.366Z,22.05
2022-10-26T08:14:10.660Z,22.61
2022-10-26T08:16:40.220Z,22.26
2022-10-26T08:19:07.619Z,22.63
2022-10-26T08:21:39.566Z,22.38
2022-10-26T08:24:07.517Z,22.67
2022-10-26T08:26:34.266Z,22.88
2022-10-26T08:29:01.249Z,22.42
2022-10-26T08:31:28.228Z,22.46
2022-10-26T08:33:54.947Z,23.04
2022-10-26T08:36:26.724Z,22.78
2022-10-26T08:38:53.714Z,23.27
2022-10-26T08:41:34.701Z,23.21
2022-10-26T08:44:17.028Z,23.40
2022-10-26T08:46:49.903Z,23.19
2022-10-26T08:49:25.252Z,23.23
2022-10-26T08:51:56.112Z,23.69
2022-10-26T08:54:47.640Z,24.05
2022-10-26T08:57:18.572Z,23.93
2022-10-26T08:59:56.379Z,23.70
2022-10-26T09:02:24.819Z,23.34
2022-10-26T09:04:52.606Z,23.11
2022-10-26T09:07:22.181Z,22.95
2022-10-26T09:10:25.713Z,23.77
2022-10-26T09:13:26.576Z,24.61
2022-10-26T09:16:31.450Z,24.88
2022-10-26T09:19:42.705Z,24.60
2022-10-26T09:22:24.399Z,25.20
2022-10-26T09:25:05.391Z,25.28
2022-10-26T09:27:43.351Z,25.30
2022-10-26T09:30:16.079Z,25.32
2022-10-26T09:32:47.327Z,25.26
2022-10-26T09:35:43.752Z,25.87
2022-10-26T09:38:33.140Z,25.59
2022-10-26T09:41:06.024Z,25.59
2022-10-26T09:43:44.887Z,25.60
2022-10-26T09:46:18.688Z,25.52
2022-10-26T09:49:11.003Z,25.03
2022-10-26T09:51:40.000Z,25.64
2022-10-26T09:54:17.265Z,25.85
2022-10-26T09:56:47.819Z,26.16
2022-10-26T09:59:18.111Z,25.89
2022-10-26T10:01:45.314Z,25.12
2022-10-26T10:04:20.109Z,25.51
2022-10-26T10:07:13.072Z,25.52
2022-10-26T10:09:40.139Z,25.94
2022-10-26T10:12:18.399Z,26.30
2022-10-26T10:14:57.460Z,25.43
2022-10-26T10:17:25.401Z,25.93
2022-10-26T10:19:52.701Z,26.13
2022-10-26T10:22:24.860Z,26.25
2022-10-26T10:24:59.705Z,26.41
2022-10-26T10:27:28.306Z,26.24
2022-10-26T10:29:59.960Z,25.95
2022-10-26T10:32:35.523Z,26.08
2022-10-26T10:35:23.856Z,26.06
2022-10-26T10:37:51.750Z,25.84
2022-10-26T10:40:22.261Z,26.38
2022-10-26T10:42:51.649Z,26.10
2022-10-26T10:45:24.583Z,26.21
2022-10-26T10:48:12.824Z,26.00
2022-10-26T10:50:57.815Z,25.92
2022-10-26T10:53:32.813Z,25.78
2022-10-26T10:56:21.213Z,25.95
2022-10-26T10:58:57.256Z,26.11
2022-10-26T11:01:30.692Z,25.91
2022-10-26T11:04:42.364Z,25.86
2022-10-26T11:07:11.243Z,26.23
2022-10-26T11:09:42.478Z,26.63
2022-10-26T11:12:19.190Z,26.72
2022-10-26T11:14:52.589Z,26.83
2022-10-26T11:18:07.661Z,26.72
2022-10-26T11:20:39.704Z,26.91
2022-10-26T11:23:21.196Z,26.88
2022-10-26T11:26:04.706Z,27.05
2022-10-26T11:28:41.217Z,26.91
2022-10-26T11:31:13.467Z,27.00
2022-10-26T11:34:20.783Z,26.61
2022-10-26T11:36:54.439Z,26.59
2022-10-26T11:39:33.485Z,27.02
2022-10-26T11:42:18.171Z,26.99
2022-10-26T11:44:53.960Z,26.91
2022-10-26T11:47:46.408Z,27.39
2022-10-26T11:50:21.614Z,27.66
2022-10-26T11:52:56.382Z,27.48
2022-10-26T11:55:23.605Z,28.55
2022-10-26T11:57:53.559Z,28.90
2022-10-26T12:00:22.848Z,28.75
2022-10-26T12:03:02.414Z,28.82
2022-10-26T12:05:32.216Z,28.38
2022-10-26T12:08:27.943Z,29.30
2022-10-26T12:10:59.867Z,29.75
2022-10-26T12:13:37.058Z,29.78
2022-10-26T12:16:13.640Z,30.49
2022-10-26T12:19:01.276Z,30.66
2022-10-26T12:21:30.313Z,30.98
2022-10-26T12:24:00.743Z,31.27
2022-10-26T12:26:27.421Z,31.37
2022-10-26T12:29:03.353Z,32.02
2022-10-26T12:31:33.633Z,31.13
2022-10-26T12:34:00.869Z,31.50
2022-10-26T12:36:55.741Z,32.64
2022-10-26T12:39:31.356Z,32.11
2022-10-26T12:42:09.975Z,32.62
2022-10-26T12:44:41.383Z,32.22
2022-10-26T12:47:10.397Z,32.41
2022-10-26T12:50:01.918Z,32.74
2022-10-26T12:52:34.433Z,32.72
2022-10-26T12:55:13.323Z,33.67
2022-10-26T12:57:52.002Z,32.86
2022-10-26T13:00:24.335Z,33.69
2022-10-26T13:03:07.108Z,33.71
2022-10-26T13:05:48.637Z,32.85
2022-10-26T13:08:16.280Z,33.69
2022-10-26T13:11:15.547Z,32.00
2022-10-26T13:13:42.616Z,32.31
2022-10-26T13:16:16.698Z,32.19
2022-10-26T13:18:48.490Z,32.42
2022-10-26T13:21:20.726Z,33.50
2022-10-26T13:24:05.490Z,33.77
2022-10-26T13:26:53.050Z,33.97
2022-10-26T13:29:20.017Z,32.81
2022-10-26T13:31:46.625Z,33.36
2022-10-26T13:34:18.229Z,32.96
2022-10-26T13:37:24.651Z,31.47
2022-10-26T13:39:55.975Z,31.46
2022-10-26T13:42:39.810Z,32.70
2022-10-26T13:45:11.689Z,32.59
2022-10-26T13:47:46.339Z,32.39
2022-10-26T13:50:20.367Z,31.38
2022-10-26T13:52:51.641Z,30.11
2022-10-26T13:55:27.060Z,29.11
2022-10-26T13:57:56.711Z,29.03
2022-10-26T14:00:23.880Z,29.03
2022-10-26T14:02:50.940Z,29.20
2022-10-26T14:05:19.308Z,28.43
2022-10-26T14:07:55.691Z,28.42
2022-10-26T14:10:38.150Z,28.37
2022-10-26T14:13:10.903Z,28.20
2022-10-26T14:15:37.643Z,27.28
2022-10-26T14:18:04.733Z,27.58
2022-10-26T14:20:32.569Z,27.84
2022-10-26T14:22:59.375Z,27.72
2022-10-26T14:25:42.589Z,27.06
2022-10-26T14:28:31.724Z,26.65
2022-10-26T14:31:22.683Z,26.96
2022-10-26T14:33:49.573Z,26.61
2022-10-26T14:36:17.642Z,26.83
2022-10-26T14:38:47.627Z,26.62
2022-10-26T14:41:16.951Z,26.86
2022-10-26T14:43:45.977Z,26.86
2022-10-26T14:46:18.133Z,26.37
2022-10-26T14:48:57.035Z,25.97
2022-10-26T14:51:34.182Z,25.68
2022-10-26T14:54:02.884Z,26.02
2022-10-26T14:56:35.568Z,26.03
2022-10-26T14:59:31.572Z,25.73
2022-10-26T15:02:10.897Z,25.96
2022-10-26T15:04:42.684Z,26.03
2022-10-26T15:07:12.465Z,26.15
2022-10-26T15:09:43.659Z,25.88
2022-10-26T15:12:21.372Z,25.98
2022-10-26T15:14:50.344Z,25.49
2022-10-26T15:17:32.152Z,25.68
2022-10-26T15:20:05.453Z,25.25
2022-10-26T15:22:33.731Z,24.74
2022-10-26T15:25:04.099Z,24.84
2022-10-26T15:27:31.306Z,24.81
2022-10-26T15:30:21.098Z,25.07
2022-10-26T15:32:48.311Z,24.89
2022-10-26T15:35:15.702Z,24.74
2022-10-26T15:37:42.539Z,24.64
2022-10-26T15:40:09.861Z,24.78
2022-10-26T15:42:40.407Z,24.92
2022-10-26T15:45:15.965Z,24.91
2022-10-26T15:47:43.291Z,24.58
2022-10-26T15:50:15.834Z,24.54
2022-10-26T15:52:45.337Z,24.27
2022-10-26T15:55:15.561Z,24.49
2022-10-26T15:57:42.440Z,24.15
2022-10-26T16:00:15.481Z,24.54
2022-10-26T16:02:44.173Z,23.83
2022-10-26T16:05:16.253Z,23.81
2022-10-26T16:07:45.384Z,23.96
2022-10-26T16:10:30.244Z,23.96
2022-10-26T16:12:59.279Z,23.56
2022-10-26T16:15:26.077Z,23.66
2022-10-26T16:17:53.211Z,23.60
2022-10-26T16:20:23.815Z,23.76
2022-10-26T16:22:52.651Z,23.44
2022-10-26T16:25:26.094Z,23.70
2022-10-26T16:27:54.608Z,23.73
2022-10-26T16:30:25.859Z,23.56
2022-10-26T16:32:55.123Z,23.79
2022-10-26T16:35:21.882Z,23.79
2022-10-26T16:37:48.834Z,23.81
2022-10-26T16:40:15.612Z,23.88
2022-10-26T16:42:44.021Z,23.86
2022-10-26T16:45:12.546Z,23.86
2022-10-26T16:47:40.241Z,23.75
2022-10-26T16:50:08.711Z,24.03
2022-10-26T16:52:36.499Z,23.83
2022-10-26T16:55:04.724Z,23.66
2022-10-26T16:57:31.426Z,23.75
2022-10-26T16:59:58.385Z,23.41
2022-10-26T17:02:25.187Z,23.44
2022-10-26T17:04:52.253Z,23.56
2022-10-26T17:07:19.164Z,23.26
2022-10-26T17:09:45.899Z,23.32
2022-10-26T17:12:12.673Z,23.45
2022-10-26T17:14:39.449Z,23.31
2022-10-26T17:17:06.314Z,23.54
2022-10-26T17:19:33.104Z,23.62
2022-10-26T17:22:01.775Z,23.31
2022-10-26T17:24:30.595Z,23.41
2022-10-26T17:26:57.599Z,23.05
2022-10-26T17:29:24.404Z,23.05
2022-10-26T17:31:51.255Z,22.98
2022-10-26T17:34:18.040Z,22.83
2022-10-26T17:36:44.810Z,22.90
2022-10-26T17:39:11.492Z,22.80
2022-10-26T17:41:38.240Z,22.80
2022-10-26T17:44:06.389Z,22.77
2022-10-26T17:46:34.086Z,22.60
2022-10-26T17:49:01.294Z,22.41
2022-10-26T17:51:30.394Z,22.11
2022-10-26T17:53:59.154Z,22.19
2022-10-26T17:56:31.823Z,22.39
2022-10-26T17:59:04.948Z,21.99
2022-10-26T18:01:32.512Z,22.11
2022-10-26T18:04:00.584Z,22.34
2022-10-26T18:06:27.846Z,22.32
2022-10-26T18:08:57.633Z,22.36
2022-10-26T18:11:27.131Z,22.34
2022-10-26T18:13:55.182Z,22.37
2022-10-26T18:16:23.879Z,22.23
2022-10-26T18:19:00.060Z,22.06
2022-10-26T18:21:28.715Z,22.06
2022-10-26T18:23:55.668Z,22.07
2022-10-26T18:26:28.493Z,22.14
2022-10-26T18:29:00.474Z,22.34
2022-10-26T18:31:29.557Z,22.32
2022-10-26T18:34:04.339Z,22.32
2022-10-26T18:36:31.788Z,22.08
2022-10-26T18:38:58.811Z,22.02
2022-10-26T18:41:26.594Z,21.98
2022-10-26T18:43:55.123Z,21.79
2022-10-26T18:46:25.146Z,21.70
2022-10-26T18:48:52.828Z,21.82
2022-10-26T18:51:22.327Z,21.72
2022-10-26T18:53:49.380Z,21.46
2022-10-26T18:56:18.939Z,21.72
2022-10-26T18:58:47.976Z,21.58
2022-10-26T19:01:19.301Z,21.28
2022-10-26T19:03:47.086Z,21.04
2022-10-26T19:06:19.314Z,21.41
2022-10-26T19:08:46.933Z,21.33
2022-10-26T19:11:16.541Z,21.34
2022-10-26T19:13:43.500Z,21.39
2022-10-26T19:16:17.416Z,21.45
2022-10-26T19:18:58.010Z,21.42
2022-10-26T19:21:26.782Z,20.89
2022-10-26T19:23:55.303Z,21.23
2022-10-26T19:26:25.138Z,21.20
2022-10-26T19:28:57.890Z,21.15
2022-10-26T19:31:27.181Z,21.17
2022-10-26T19:33:56.480Z,21.03
2022-10-26T19:36:23.565Z,20.98
2022-10-26T19:38:50.303Z,21.19
2022-10-26T19:41:17.476Z,21.24
2022-10-26T19:43:44.717Z,21.33
2022-10-26T19:46:14.629Z,21.28
2022-10-26T19:48:42.403Z,20.88
2022-10-26T19:51:09.667Z,20.68
2022-10-26T19:53:36.360Z,20.47
2022-10-26T19:56:03.286Z,19.84
2022-10-26T19:58:31.412Z,19.87
2022-10-26T20:01:00.627Z,20.03
2022-10-26T20:03:29.039Z,19.93
2022-10-26T20:05:57.795Z,19.81
2022-10-26T20:08:25.219Z,19.91
2022-10-26T20:10:57.190Z,19.80
2022-10-26T20:13:24.507Z,19.91
2022-10-26T20:15:51.888Z,19.69
2022-10-26T20:18:19.357Z,19.28
2022-10-26T20:20:46.942Z,19.03
2022-10-26T20:23:14.293Z,19.23
2022-10-26T20:25:47.115Z,19.08
2022-10-26T20:28:15.203Z,19.17
2022-10-26T20:30:44.864Z,19.12
2022-10-26T20:33:12.295Z,19.04
2022-10-26T20:35:39.618Z,19.06
2022-10-26T20:38:08.177Z,19.20
2022-10-26T20:40:35.593Z,19.36
2022-10-26T20:43:02.730Z,19.38
2022-10-26T20:45:31.873Z,19.06
2022-10-26T20:48:00.322Z,18.94
2022-10-26T20:50:31.150Z,18.25
2022-10-26T20:53:10.742Z,18.42
2022-10-26T20:55:44.782Z,18.42
2022-10-26T20:58:20.122Z,18.40
2022-10-26T21:00:56.734Z,17.91
2022-10-26T21:03:23.446Z,17.73
2022-10-26T21:05:50.353Z,17.40
2022-10-26T21:08:17.091Z,17.81
2022-10-26T21:10:44.085Z,17.29
2022-10-26T21:13:13.020Z,16.62
2022-10-26T21:15:39.816Z,17.39
2022-10-26T21:18:06.724Z,17.61
2022-10-26T21:20:33.524Z,17.76
2022-10-26T21:23:00.391Z,17.80
2022-10-26T21:25:27.314Z,17.94
2022-10-26T21:27:58.267Z,17.84
2022-10-26T21:30:25.871Z,17.65
2022-10-26T21:32:53.465Z,17.63
2022-10-26T21:35:20.825Z,17.46
2022-10-26T21:37:48.568Z,17.13
2022-10-26T21:40:15.803Z,16.50
2022-10-26T21:42:42.468Z,16.38
2022-10-26T21:45:09.580Z,16.50
2022-10-26T21:47:36.330Z,16.67
2022-10-26T21:50:03.318Z,15.95
2022-10-26T21:52:30.324Z,16.17
2022-10-26T21:54:57.465Z,16.57
2022-10-26T21:57:24.481Z,16.64
2022-10-26T21:59:51.547Z,16.76
2022-10-26T22:02:18.295Z,17.11
2022-10-26T22:04:45.258Z,17.10
2022-10-26T22:07:11.984Z,16.96
2022-10-26T22:09:49.344Z,16.56
2022-10-26T22:12:25.502Z,16.61
2022-10-26T22:14:52.484Z,16.66
2022-10-26T22:17:19.184Z,16.74
2022-10-26T22:19:46.864Z,17.10
2022-10-26T22:22:13.817Z,16.34
2022-10-26T22:24:41.139Z,16.84
2022-10-26T22:27:07.888Z,17.00
2022-10-26T22:29:34.607Z,17.03
2022-10-26T22:32:01.391Z,16.98
2022-10-26T22:34:28.083Z,17.07
2022-10-26T22:36:54.756Z,17.11
2022-10-26T22:39:21.581Z,16.88
2022-10-26T22:41:49.474Z,16.83
2022-10-26T22:44:16.094Z,16.91
2022-10-26T22:46:42.733Z,16.87
2022-10-26T22:49:11.807Z,16.98
2022-10-26T22:51:38.554Z,16.95
2022-10-26T22:54:05.823Z,17.13
2022-10-26T22:56:35.109Z,17.07
2022-10-26T22:59:02.123Z,16.75
2022-10-26T23:01:31.697Z,16.65
2022-10-26T23:03:59.531Z,16.72
2022-10-26T23:06:29.266Z,16.77
2022-10-26T23:08:56.066Z,16.98
2022-10-26T23:11:24.772Z,17.09
2022-10-26T23:13:59.350Z,17.00
2022-10-26T23:16:27.304Z,16.93
2022-10-26T23:18:54.416Z,16.80
2022-10-26T23:21:23.719Z,16.77
2022-10-26T23:23:50.803Z,16.61
2022-10-26T23:26:20.996Z,16.86
2022-10-26T23:28:49.193Z,16.80
2022-10-26T23:31:25.472Z,16.86
2022-10-26T23:33:53.930Z,16.80
2022-10-26T23:36:21.170Z,16.71
2022-10-26T23:38:48.165Z,16.68
2022-10-26T23:41:15.417Z,16.69
2022-10-26T23:43:42.489Z,16.71
2022-10-26T23:46:09.333Z,16.70
2022-10-26T23:48:36.860Z,16.69
2022-10-26T23:51:04.013Z,16.59
2022-10-26T23:53:30.773Z,16.68
2022-10-26T23:55:57.481Z,16.70
2022-10-26T23:58:24.188Z,16.59
